Time;durP1;ratioP1;P1;durP2;ratioP2;P2;SDS_P1;SDS_P2;PMS_P1;PMS_P2;Temp;Humidity;BMP_temperature;BMP_pressure;BME280_temperature;BME280_humidity;BME280_pressure;Samples;Min_cycle;Max_cycle;Signal;HPM_P1;HPM_P2
2022/01/18 00:00:01;;;;;;;26.13;12.90;;;;;;;;;;5079314;28;20107;-65
2022/01/18 00:02:26;;;;;;;26.05;12.40;;;;;;;;;;5072828;28;20119;-65
2022/01/18 00:04:52;;;;;;;22.95;11.52;;;;;;;;;;5072787;28;20103;-64
2022/01/18 00:07:18;;;;;;;21.10;11.05;;;;;;;;;;5074932;28;20033;-64
2022/01/18 00:09:43;;;;;;;22.30;11.82;;;;;;;;;;5077737;28;20024;-66
2022/01/18 00:12:30;;;;;;;21.83;11.02;;;;;;;;;;5072574;28;20445;-65
2022/01/18 00:15:17;;;;;;;20.15;10.82;;;;;;;;;;5072587;28;20031;-65
2022/01/18 00:17:51;;;;;;;16.92;9.68;;;;;;;;;;5072021;28;20044;-64
2022/01/18 00:20:21;;;;;;;22.75;10.57;;;;;;;;;;5072517;28;20025;-64
2022/01/18 00:22:47;;;;;;;25.95;10.70;;;;;;;;;;5074647;28;20475;-63
2022/01/18 00:25:12;;;;;;;19.70;10.05;;;;;;;;;;5074114;28;20086;-63
2022/01/18 00:27:38;;;;;;;21.60;10.75;;;;;;;;;;5072505;28;20047;-64
2022/01/18 00:35:07;;;;;;;19.15;9.00;;;;;;;;;;5072265;28;20020;-68
2022/01/18 00:37:38;;;;;;;17.40;8.82;;;;;;;;;;5072003;28;20023;-65
2022/01/18 00:40:05;;;;;;;18.20;9.20;;;;;;;;;;5074355;28;20028;-65
2022/01/18 00:42:31;;;;;;;15.93;8.40;;;;;;;;;;5072264;28;20027;-63
2022/01/18 00:44:56;;;;;;;15.30;8.05;;;;;;;;;;5071779;28;20029;-67
2022/01/18 00:47:22;;;;;;;13.73;7.38;;;;;;;;;;5072024;28;20522;-65
2022/01/18 00:49:49;;;;;;;15.82;7.90;;;;;;;;;;5071842;28;20451;-63
2022/01/18 00:52:18;;;;;;;16.52;7.43;;;;;;;;;;5074069;28;20020;-65
2022/01/18 00:54:46;;;;;;;17.25;7.38;;;;;;;;;;5072021;28;20589;-64
2022/01/18 00:57:12;;;;;;;15.20;7.55;;;;;;;;;;5071802;28;20021;-64
2022/01/18 00:59:40;;;;;;;16.83;7.78;;;;;;;;;;5071569;28;20042;-64
2022/01/18 01:02:06;;;;;;;20.40;7.85;;;;;;;;;;5071740;28;20032;-66
2022/01/18 01:04:35;;;;;;;19.33;8.68;;;;;;;;;;5071492;28;20032;-69
2022/01/18 01:07:01;;;;;;;15.80;7.85;;;;;;;;;;5073928;28;20021;-65
2022/01/18 01:09:26;;;;;;;17.70;8.75;;;;;;;;;;5071484;28;20031;-66
2022/01/18 01:11:52;;;;;;;20.17;8.80;;;;;;;;;;5071686;28;20154;-64
2022/01/18 01:14:21;;;;;;;19.30;9.00;;;;;;;;;;5071373;28;20040;-65
2022/01/18 01:46:31;;;;;;;17.52;7.80;;;;;;;;;;5071014;28;20025;-64
2022/01/18 01:48:58;;;;;;;22.08;7.47;;;;;;;;;;5071722;28;20139;-65
2022/01/18 01:51:30;;;;;;;18.60;7.28;;;;;;;;;;5073836;28;20034;-64
2022/01/18 01:53:58;;;;;;;18.90;7.57;;;;;;;;;;5070623;28;20032;-64
2022/01/18 01:56:26;;;;;;;18.33;7.28;;;;;;;;;;5070714;28;20140;-64
2022/01/18 01:58:51;;;;;;;15.85;7.43;;;;;;;;;;5070144;28;20036;-65
2022/01/18 02:01:17;;;;;;;17.08;7.28;;;;;;;;;;5070071;28;20020;-64
2022/01/18 02:03:42;;;;;;;15.98;6.53;;;;;;;;;;5070401;28;20059;-66
2022/01/18 02:06:08;;;;;;;16.23;6.88;;;;;;;;;;5069830;28;20036;-67
2022/01/18 02:08:33;;;;;;;16.77;6.80;;;;;;;;;;5072925;28;20448;-63
2022/01/18 02:10:58;;;;;;;16.05;6.43;;;;;;;;;;5070380;28;20047;-66
2022/01/18 02:13:24;;;;;;;14.00;6.30;;;;;;;;;;5070315;28;20066;-63
2022/01/18 02:23:56;;;;;;;10.70;4.95;;;;;;;;;;5074093;28;20032;-64
2022/01/18 02:26:21;;;;;;;9.98;4.75;;;;;;;;;;5077390;28;20032;-62
2022/01/18 02:28:47;;;;;;;10.45;4.53;;;;;;;;;;5073387;28;20058;-64
2022/01/18 02:31:12;;;;;;;9.77;4.53;;;;;;;;;;5070144;28;20027;-63
2022/01/18 02:33:38;;;;;;;10.68;4.15;;;;;;;;;;5070370;28;20051;-66
2022/01/18 02:36:07;;;;;;;6.65;3.70;;;;;;;;;;5070412;28;20024;-66
2022/01/18 02:38:33;;;;;;;11.05;4.35;;;;;;;;;;5072405;28;20088;-63
2022/01/18 02:40:59;;;;;;;11.82;4.28;;;;;;;;;;5070111;28;20158;-65
2022/01/18 02:46:10;;;;;;;10.02;4.20;;;;;;;;;;5070132;28;20039;-66
2022/01/18 02:48:35;;;;;;;7.90;3.50;;;;;;;;;;5071953;28;20032;-63
2022/01/18 02:51:01;;;;;;;8.05;3.92;;;;;;;;;;5069787;28;20036;-65
2022/01/18 02:53:26;;;;;;;8.57;3.90;;;;;;;;;;5072002;28;20032;-64
2022/01/18 02:55:54;;;;;;;6.70;3.28;;;;;;;;;;5071940;28;20039;-64
2022/01/18 02:58:32;;;;;;;9.02;3.47;;;;;;;;;;5074134;28;20083;-65
2022/01/18 03:03:35;;;;;;;7.60;3.08;;;;;;;;;;5079071;28;20032;-66
2022/01/18 03:06:03;;;;;;;6.88;3.13;;;;;;;;;;5069747;28;20120;-63
2022/01/18 03:08:29;;;;;;;11.45;3.63;;;;;;;;;;5069537;28;20036;-64
2022/01/18 03:10:56;;;;;;;7.85;3.50;;;;;;;;;;5069524;28;20043;-65
2022/01/18 03:13:22;;;;;;;10.30;3.45;;;;;;;;;;5069914;28;20059;-66
2022/01/18 03:15:47;;;;;;;7.90;3.30;;;;;;;;;;5073006;28;20025;-66
2022/01/18 03:18:13;;;;;;;6.70;2.97;;;;;;;;;;5071442;28;20367;-64
2022/01/18 03:20:39;;;;;;;7.95;3.22;;;;;;;;;;5072874;28;20033;-63
2022/01/18 03:23:10;;;;;;;7.55;3.33;;;;;;;;;;5071604;28;20028;-66
2022/01/18 03:28:04;;;;;;;5.80;3.00;;;;;;;;;;5069826;28;20040;-64
2022/01/18 03:30:53;;;;;;;7.90;3.08;;;;;;;;;;5071371;28;20035;-63
2022/01/18 03:33:21;;;;;;;8.73;3.40;;;;;;;;;;5069820;28;20116;-67
2022/01/18 03:35:48;;;;;;;7.78;2.85;;;;;;;;;;5069712;28;20115;-66
2022/01/18 03:38:14;;;;;;;8.00;3.20;;;;;;;;;;5071363;28;20043;-66
2022/01/18 03:40:40;;;;;;;6.63;3.00;;;;;;;;;;5073167;28;20020;-68
2022/01/18 03:43:08;;;;;;;7.78;2.80;;;;;;;;;;5073117;28;20044;-65
2022/01/18 03:45:43;;;;;;;8.93;3.10;;;;;;;;;;5072703;28;20454;-65
2022/01/18 03:48:23;;;;;;;8.57;3.10;;;;;;;;;;5073182;28;20074;-65
2022/01/18 03:50:48;;;;;;;5.97;3.20;;;;;;;;;;5072820;28;20021;-64
2022/01/18 03:53:14;;;;;;;6.85;3.10;;;;;;;;;;5073863;28;20549;-65
2022/01/18 03:55:39;;;;;;;7.72;2.85;;;;;;;;;;5075832;28;20021;-66
2022/01/18 03:58:05;;;;;;;6.60;3.17;;;;;;;;;;5075004;28;20028;-64
2022/01/18 04:00:30;;;;;;;5.43;3.03;;;;;;;;;;5072349;28;20028;-64
2022/01/18 04:02:57;;;;;;;8.63;3.00;;;;;;;;;;5072964;28;20032;-66
2022/01/18 04:05:23;;;;;;;9.18;2.80;;;;;;;;;;5073620;28;20437;-66
2022/01/18 04:07:50;;;;;;;7.20;3.10;;;;;;;;;;5074731;28;20024;-64
2022/01/18 04:10:15;;;;;;;4.70;2.50;;;;;;;;;;5072492;28;20032;-64
2022/01/18 04:12:41;;;;;;;6.70;2.97;;;;;;;;;;5074735;28;20027;-67
2022/01/18 04:15:09;;;;;;;6.32;3.08;;;;;;;;;;5072493;28;20024;-62
2022/01/18 04:28:31;;;;;;;6.50;2.67;;;;;;;;;;5072333;28;20044;-66
2022/01/18 04:30:56;;;;;;;6.32;2.67;;;;;;;;;;5075165;28;20420;-63
2022/01/18 04:33:22;;;;;;;6.47;2.67;;;;;;;;;;5074406;28;20036;-65
2022/01/18 04:35:47;;;;;;;7.28;2.92;;;;;;;;;;5071726;28;20460;-66
2022/01/18 04:38:13;;;;;;;12.60;3.10;;;;;;;;;;5074534;28;20065;-67
2022/01/18 04:40:42;;;;;;;6.75;2.88;;;;;;;;;;5077739;28;20024;-64
2022/01/18 04:48:37;;;;;;;10.88;2.97;;;;;;;;;;5073534;28;20071;-64
2022/01/18 04:51:08;;;;;;;5.70;2.70;;;;;;;;;;5071629;28;20500;-64
2022/01/18 04:53:35;;;;;;;8.63;2.65;;;;;;;;;;5073572;28;20534;-64
2022/01/18 04:56:07;;;;;;;4.30;2.42;;;;;;;;;;5071816;28;20376;-64
2022/01/18 04:58:32;;;;;;;6.75;2.72;;;;;;;;;;5071153;28;20028;-65
2022/01/18 05:01:00;;;;;;;5.03;2.50;;;;;;;;;;5075522;28;20121;-66
2022/01/18 05:03:28;;;;;;;4.80;2.47;;;;;;;;;;5073838;28;20079;-64
2022/01/18 05:05:56;;;;;;;8.45;2.60;;;;;;;;;;5071052;28;20021;-63
2022/01/18 05:08:22;;;;;;;7.18;2.80;;;;;;;;;;5074938;28;20081;-64
2022/01/18 05:10:58;;;;;;;7.20;2.60;;;;;;;;;;5071555;28;20021;-66
2022/01/18 05:21:28;;;;;;;4.93;2.30;;;;;;;;;;5071031;28;20035;-65
2022/01/18 05:23:55;;;;;;;7.57;2.60;;;;;;;;;;5078548;28;20070;-67
2022/01/18 05:26:22;;;;;;;7.25;2.50;;;;;;;;;;5076470;28;20024;-67
2022/01/18 05:28:47;;;;;;;4.88;2.63;;;;;;;;;;5073845;28;20028;-65
2022/01/18 05:31:13;;;;;;;7.85;2.80;;;;;;;;;;5077597;28;20020;-66
2022/01/18 05:33:41;;;;;;;7.53;2.88;;;;;;;;;;5071183;28;20025;-65
2022/01/18 05:36:07;;;;;;;5.40;2.45;;;;;;;;;;5071099;28;20404;-63
2022/01/18 05:38:33;;;;;;;6.00;2.75;;;;;;;;;;5071852;28;20396;-63
2022/01/18 05:41:00;;;;;;;6.43;2.70;;;;;;;;;;5070779;28;20020;-65
2022/01/18 05:43:25;;;;;;;5.93;2.42;;;;;;;;;;5071314;28;20029;-64
2022/01/18 05:45:51;;;;;;;10.75;2.92;;;;;;;;;;5070706;28;20479;-68
2022/01/18 05:48:16;;;;;;;6.18;2.47;;;;;;;;;;5072958;28;20108;-64
2022/01/18 05:50:42;;;;;;;7.28;2.55;;;;;;;;;;5070746;28;20024;-65
2022/01/18 05:53:07;;;;;;;8.95;2.97;;;;;;;;;;5071935;28;20025;-65
2022/01/18 05:55:33;;;;;;;5.93;2.58;;;;;;;;;;5069988;28;20111;-64
2022/01/18 05:57:58;;;;;;;5.75;2.60;;;;;;;;;;5070506;28;20029;-64
2022/01/18 06:00:26;;;;;;;5.60;2.58;;;;;;;;;;5071758;28;20078;-63
2022/01/18 06:08:25;;;;;;;4.10;2.38;;;;;;;;;;5049198;28;20031;-64
2022/01/18 06:10:51;;;;;;;11.65;2.97;;;;;;;;;;5065548;28;20036;-64
2022/01/18 06:13:16;;;;;;;6.68;2.92;;;;;;;;;;5072530;28;20059;-63
2022/01/18 06:15:42;;;;;;;6.75;2.53;;;;;;;;;;5070045;28;20096;-65
2022/01/18 06:18:08;;;;;;;13.05;3.38;;;;;;;;;;5075439;28;20089;-66
2022/01/18 06:20:34;;;;;;;10.68;3.00;;;;;;;;;;5070180;28;20119;-66
2022/01/18 06:23:00;;;;;;;8.38;3.30;;;;;;;;;;5070301;28;20496;-65
2022/01/18 06:25:25;;;;;;;10.90;2.95;;;;;;;;;;5075142;28;20036;-63
2022/01/18 06:27:53;;;;;;;9.43;2.85;;;;;;;;;;5073611;28;20338;-65
2022/01/18 06:30:19;;;;;;;5.45;2.70;;;;;;;;;;5073847;28;20707;-65
2022/01/18 06:32:45;;;;;;;7.15;2.85;;;;;;;;;;5069926;28;20031;-65
2022/01/18 06:35:11;;;;;;;6.75;3.10;;;;;;;;;;5072391;28;20021;-66
2022/01/18 06:37:38;;;;;;;11.55;3.78;;;;;;;;;;5072158;28;20044;-64
2022/01/18 06:40:04;;;;;;;11.23;4.10;;;;;;;;;;5072315;28;20040;-63
2022/01/18 06:42:31;;;;;;;11.90;4.85;;;;;;;;;;5077181;28;20083;-66
2022/01/18 06:44:57;;;;;;;12.00;5.00;;;;;;;;;;5069723;28;20032;-66
2022/01/18 06:47:22;;;;;;;11.15;4.80;;;;;;;;;;5069994;28;20442;-65
2022/01/18 06:49:48;;;;;;;12.73;4.25;;;;;;;;;;5069825;28;20020;-65
2022/01/18 06:52:13;;;;;;;9.52;4.15;;;;;;;;;;5069685;28;20414;-65
2022/01/18 06:54:39;;;;;;;11.73;4.30;;;;;;;;;;5069986;28;20025;-65
2022/01/18 06:57:05;;;;;;;11.75;4.22;;;;;;;;;;5070061;28;20033;-65
2022/01/18 06:59:30;;;;;;;11.15;3.88;;;;;;;;;;5069907;28;20052;-66
2022/01/18 07:01:56;;;;;;;11.23;4.50;;;;;;;;;;5069736;28;20032;-66
2022/01/18 07:04:22;;;;;;;12.02;4.40;;;;;;;;;;5069550;28;20039;-66
2022/01/18 07:06:48;;;;;;;12.93;4.13;;;;;;;;;;5069779;28;20086;-63
2022/01/18 07:09:15;;;;;;;12.20;3.80;;;;;;;;;;5069931;28;20021;-65
2022/01/18 07:11:41;;;;;;;8.52;3.40;;;;;;;;;;5069814;28;20103;-67
2022/01/18 07:14:07;;;;;;;13.25;4.35;;;;;;;;;;5069760;28;20040;-64
2022/01/18 07:16:32;;;;;;;12.02;3.90;;;;;;;;;;5072895;28;20028;-64
2022/01/18 07:18:57;;;;;;;8.93;3.65;;;;;;;;;;5073597;28;20028;-66
2022/01/18 07:21:23;;;;;;;9.75;3.50;;;;;;;;;;5073421;28;20051;-66
2022/01/18 07:23:51;;;;;;;15.32;5.05;;;;;;;;;;5073325;28;20476;-68
2022/01/18 07:26:17;;;;;;;7.50;3.50;;;;;;;;;;5073671;28;20031;-67
2022/01/18 07:28:42;;;;;;;13.82;4.10;;;;;;;;;;5073521;28;20025;-66
2022/01/18 07:31:08;;;;;;;11.98;3.35;;;;;;;;;;5073144;28;20624;-68
2022/01/18 07:33:36;;;;;;;12.55;3.25;;;;;;;;;;5073563;28;20059;-65
2022/01/18 07:36:02;;;;;;;8.23;3.70;;;;;;;;;;5073098;28;20024;-66
2022/01/18 07:38:27;;;;;;;12.95;3.63;;;;;;;;;;5073462;28;20036;-65
2022/01/18 07:40:53;;;;;;;8.75;3.40;;;;;;;;;;5073055;28;20025;-66
2022/01/18 07:43:20;;;;;;;10.23;3.47;;;;;;;;;;5073253;28;20365;-65
2022/01/18 07:45:47;;;;;;;8.63;3.28;;;;;;;;;;5073050;28;20027;-62
2022/01/18 07:48:13;;;;;;;12.38;3.85;;;;;;;;;;5073194;28;20543;-65
2022/01/18 07:50:41;;;;;;;12.57;3.30;;;;;;;;;;5072841;28;20062;-67
2022/01/18 07:53:07;;;;;;;8.70;3.22;;;;;;;;;;5072842;28;20480;-65
2022/01/18 07:55:33;;;;;;;11.80;3.10;;;;;;;;;;5071489;28;20070;-66
2022/01/18 07:58:00;;;;;;;9.13;2.92;;;;;;;;;;5072394;28;20028;-68
2022/01/18 08:00:26;;;;;;;10.13;2.95;;;;;;;;;;5072590;28;20060;-65
2022/01/18 08:02:52;;;;;;;8.05;3.10;;;;;;;;;;5072952;28;20028;-69
2022/01/18 08:05:18;;;;;;;11.43;3.13;;;;;;;;;;5072302;28;20043;-64
2022/01/18 08:07:43;;;;;;;12.15;3.33;;;;;;;;;;5072745;28;20028;-67
2022/01/18 08:10:11;;;;;;;19.38;3.22;;;;;;;;;;5072742;28;20369;-68
2022/01/18 08:12:37;;;;;;;20.52;3.78;;;;;;;;;;5072228;28;20103;-66
2022/01/18 08:15:13;;;;;;;12.02;3.75;;;;;;;;;;5072682;28;20416;-65
2022/01/18 08:17:41;;;;;;;12.90;3.15;;;;;;;;;;5072409;28;20128;-67
2022/01/18 08:20:07;;;;;;;12.20;3.83;;;;;;;;;;5072585;28;20029;-72
2022/01/18 08:22:32;;;;;;;15.27;3.88;;;;;;;;;;5070914;28;20020;-65
2022/01/18 08:24:58;;;;;;;12.80;4.07;;;;;;;;;;5070846;28;20066;-67
2022/01/18 08:27:23;;;;;;;7.53;3.65;;;;;;;;;;5070205;28;20029;-69
2022/01/18 08:29:49;;;;;;;13.60;4.00;;;;;;;;;;5072135;28;20119;-66
2022/01/18 08:32:16;;;;;;;8.73;3.92;;;;;;;;;;5072123;28;20044;-69
2022/01/18 08:34:41;;;;;;;10.15;4.38;;;;;;;;;;5072393;28;20032;-67
2022/01/18 08:37:07;;;;;;;19.95;4.60;;;;;;;;;;5072438;28;20032;-65
2022/01/18 08:39:32;;;;;;;12.45;4.70;;;;;;;;;;5072208;28;20025;-67
2022/01/18 08:41:58;;;;;;;16.08;4.72;;;;;;;;;;5072040;28;20059;-70
2022/01/18 08:44:23;;;;;;;16.50;4.70;;;;;;;;;;5071943;28;20116;-66
2022/01/18 08:46:49;;;;;;;18.67;5.28;;;;;;;;;;5072042;28;20586;-74
2022/01/18 08:49:14;;;;;;;21.63;5.45;;;;;;;;;;5071897;28;20019;-72
2022/01/18 08:51:40;;;;;;;14.95;4.80;;;;;;;;;;5071643;28;20016;-68
2022/01/18 08:54:05;;;;;;;19.67;5.47;;;;;;;;;;5071773;28;20020;-67
2022/01/18 08:56:31;;;;;;;15.70;5.00;;;;;;;;;;5071936;28;20067;-65
2022/01/18 08:58:57;;;;;;;201.88;97.18;;;;;;;;;;5071498;28;20103;-69
2022/01/18 09:01:23;;;;;;;56.28;29.08;;;;;;;;;;5071375;28;20032;-65
2022/01/18 09:03:50;;;;;;;42.13;16.95;;;;;;;;;;5071275;28;20024;-64
2022/01/18 09:06:17;;;;;;;50.47;20.58;;;;;;;;;;5071480;28;20365;-65
2022/01/18 09:08:43;;;;;;;34.22;14.88;;;;;;;;;;5071547;28;20028;-66
2022/01/18 09:11:11;;;;;;;22.38;7.93;;;;;;;;;;5071191;28;20029;-65
2022/01/18 09:13:37;;;;;;;16.85;5.28;;;;;;;;;;5071529;28;20021;-65
2022/01/18 09:16:06;;;;;;;12.82;4.63;;;;;;;;;;5070948;28;20024;-65
2022/01/18 09:18:32;;;;;;;13.82;5.30;;;;;;;;;;5071028;28;20067;-64
2022/01/18 09:20:57;;;;;;;12.07;3.53;;;;;;;;;;5070894;28;20429;-64
2022/01/18 09:23:23;;;;;;;9.60;5.60;;;;;;;;;;5070453;28;20044;-66
2022/01/18 09:25:48;;;;;;;16.48;6.05;;;;;;;;;;5070839;28;20491;-71
2022/01/18 09:28:14;;;;;;;19.20;4.82;;;;;;;;;;5070757;28;20021;-70
2022/01/18 09:30:41;;;;;;;21.67;13.10;;;;;;;;;;5070673;28;20070;-65
2022/01/18 09:33:07;;;;;;;16.63;7.18;;;;;;;;;;5071185;28;20641;-66
2022/01/18 09:35:37;;;;;;;16.48;3.90;;;;;;;;;;5073338;28;20020;-65
2022/01/18 09:38:04;;;;;;;12.10;3.33;;;;;;;;;;5070748;28;20465;-70
2022/01/18 09:40:30;;;;;;;12.10;4.95;;;;;;;;;;5070807;28;20492;-69
2022/01/18 09:42:59;;;;;;;12.25;3.28;;;;;;;;;;5070641;28;20040;-67
2022/01/18 09:45:27;;;;;;;21.40;9.10;;;;;;;;;;5073954;28;20025;-65
2022/01/18 09:47:55;;;;;;;16.88;3.97;;;;;;;;;;5070291;28;20595;-66
2022/01/18 09:50:27;;;;;;;13.60;3.50;;;;;;;;;;5070441;28;20029;-64
2022/01/18 09:52:54;;;;;;;13.68;3.78;;;;;;;;;;5070362;28;20032;-63
2022/01/18 09:55:23;;;;;;;13.38;3.30;;;;;;;;;;5070490;28;20024;-64
2022/01/18 09:57:50;;;;;;;9.38;3.40;;;;;;;;;;5068623;28;20060;-65
2022/01/18 10:00:18;;;;;;;11.85;3.20;;;;;;;;;;5070231;28;20070;-72
2022/01/18 10:02:44;;;;;;;9.32;3.10;;;;;;;;;;5069937;28;20066;-67
2022/01/18 10:05:29;;;;;;;12.23;3.03;;;;;;;;;;5069973;28;20495;-72
2022/01/18 10:07:59;;;;;;;11.48;3.55;;;;;;;;;;5070412;28;20055;-69
2022/01/18 10:10:58;;;;;;;10.38;4.00;;;;;;;;;;5070133;28;20163;-68
2022/01/18 10:13:31;;;;;;;11.20;3.40;;;;;;;;;;5046563;28;20032;-64
2022/01/18 10:16:08;;;;;;;14.35;3.22;;;;;;;;;;5070144;28;20021;-70
2022/01/18 10:18:46;;;;;;;6.43;2.67;;;;;;;;;;5069979;28;20465;-69
2022/01/18 10:21:35;;;;;;;15.30;3.10;;;;;;;;;;5069706;28;20081;-65
2022/01/18 10:24:21;;;;;;;10.02;3.25;;;;;;;;;;5071437;28;20039;-66
2022/01/18 10:26:49;;;;;;;8.30;3.10;;;;;;;;;;5075168;28;20070;-63
2022/01/18 10:29:16;;;;;;;15.40;4.20;;;;;;;;;;5069758;28;20104;-67
2022/01/18 10:34:27;;;;;;;12.77;3.13;;;;;;;;;;5070096;28;20028;-69
2022/01/18 10:37:19;;;;;;;11.75;3.67;;;;;;;;;;5070056;28;20042;-70
2022/01/18 10:39:56;;;;;;;9.52;3.10;;;;;;;;;;5065203;28;20067;-70
2022/01/18 10:42:39;;;;;;;10.35;3.80;;;;;;;;;;5069914;28;20062;-67
2022/01/18 10:45:08;;;;;;;12.57;3.58;;;;;;;;;;5069551;28;20016;-72
2022/01/18 10:47:35;;;;;;;11.48;3.13;;;;;;;;;;5069795;28;20016;-72
2022/01/18 10:50:12;;;;;;;11.32;3.05;;;;;;;;;;5068932;28;20027;-72
2022/01/18 10:52:39;;;;;;;9.60;3.00;;;;;;;;;;5069870;28;20047;-66
2022/01/18 10:55:05;;;;;;;9.05;3.03;;;;;;;;;;5071787;28;20036;-68
2022/01/18 10:57:39;;;;;;;7.95;2.78;;;;;;;;;;5069805;28;20107;-70
2022/01/18 11:00:20;;;;;;;14.52;3.45;;;;;;;;;;5069362;28;20099;-67
2022/01/18 11:02:50;;;;;;;9.38;2.85;;;;;;;;;;5069202;28;20074;-72
2022/01/18 11:05:29;;;;;;;11.65;2.97;;;;;;;;;;5069564;28;20044;-71
2022/01/18 11:07:57;;;;;;;9.77;2.92;;;;;;;;;;5068232;28;20045;-74
2022/01/18 11:10:25;;;;;;;8.85;2.80;;;;;;;;;;5069218;28;20059;-73
2022/01/18 11:13:02;;;;;;;10.95;3.22;;;;;;;;;;5069894;28;20027;-70
2022/01/18 11:15:28;;;;;;;8.65;2.80;;;;;;;;;;5071694;28;20033;-72
2022/01/18 11:18:03;;;;;;;9.80;2.90;;;;;;;;;;5070655;28;20143;-69
2022/01/18 11:20:31;;;;;;;12.45;3.75;;;;;;;;;;5069484;28;20476;-68
2022/01/18 11:22:58;;;;;;;9.23;2.70;;;;;;;;;;5069643;28;20052;-72
2022/01/18 11:25:24;;;;;;;12.30;3.42;;;;;;;;;;5069720;28;20052;-76
2022/01/18 11:27:52;;;;;;;10.07;2.72;;;;;;;;;;5069295;28;20024;-68
2022/01/18 11:30:20;;;;;;;7.22;2.70;;;;;;;;;;5069161;28;20620;-73
2022/01/18 11:32:46;;;;;;;9.82;2.97;;;;;;;;;;5069342;28;20036;-69
2022/01/18 11:35:19;;;;;;;9.27;2.88;;;;;;;;;;5069459;28;20016;-72
2022/01/18 11:38:11;;;;;;;8.57;2.65;;;;;;;;;;5069768;28;20017;-71
2022/01/18 11:40:45;;;;;;;7.43;2.72;;;;;;;;;;5069293;28;20033;-72
2022/01/18 11:43:11;;;;;;;8.23;2.78;;;;;;;;;;5069343;28;20079;-73
2022/01/18 11:45:39;;;;;;;9.35;3.55;;;;;;;;;;5068198;28;20044;-72
2022/01/18 11:48:14;;;;;;;12.98;3.30;;;;;;;;;;5069390;28;20373;-68
2022/01/18 11:50:50;;;;;;;9.40;2.78;;;;;;;;;;5069344;28;20024;-70
2022/01/18 11:53:28;;;;;;;11.38;2.70;;;;;;;;;;5069224;28;20020;-71
2022/01/18 11:55:58;;;;;;;10.65;3.08;;;;;;;;;;5069406;28;20031;-73
2022/01/18 11:58:26;;;;;;;13.63;2.95;;;;;;;;;;5069554;28;20078;-73
2022/01/18 12:00:57;;;;;;;9.05;2.70;;;;;;;;;;5068940;28;20048;-73
2022/01/18 12:03:41;;;;;;;8.40;3.00;;;;;;;;;;5072027;28;20413;-68
2022/01/18 12:06:06;;;;;;;8.85;2.83;;;;;;;;;;5072824;28;20016;-72
2022/01/18 12:08:45;;;;;;;7.57;2.92;;;;;;;;;;5072962;28;20051;-73
2022/01/18 12:11:19;;;;;;;8.52;3.10;;;;;;;;;;5072677;28;20422;-70
2022/01/18 12:13:46;;;;;;;8.52;2.90;;;;;;;;;;5072966;28;20047;-70
2022/01/18 12:16:20;;;;;;;10.48;2.97;;;;;;;;;;5072595;28;20107;-72
2022/01/18 12:18:58;;;;;;;11.18;3.35;;;;;;;;;;5072168;28;20084;-73
2022/01/18 12:21:27;;;;;;;8.38;3.05;;;;;;;;;;5072463;28;20025;-72
2022/01/18 12:23:54;;;;;;;9.57;2.83;;;;;;;;;;5072524;28;20031;-72
2022/01/18 12:26:32;;;;;;;8.32;3.28;;;;;;;;;;5072725;28;20029;-73
2022/01/18 12:32:40;;;;;;;10.60;3.35;;;;;;;;;;5072393;28;20391;-73
2022/01/18 12:34:31;;;;;;;12.15;3.13;;;;;;;;;;5064671;28;20024;-72
2022/01/18 12:37:11;;;;;;;8.38;2.80;;;;;;;;;;5072121;28;20027;-74
2022/01/18 12:40:15;;;;;;;9.35;2.95;;;;;;;;;;5072174;28;20024;-74
2022/01/18 12:45:28;;;;;;;10.27;3.50;;;;;;;;;;5072173;28;20029;-69
2022/01/18 12:47:56;;;;;;;11.13;3.08;;;;;;;;;;5072373;28;20036;-67
2022/01/18 12:50:52;;;;;;;13.48;3.30;;;;;;;;;;5071955;28;20028;-66
2022/01/18 12:53:21;;;;;;;14.00;3.38;;;;;;;;;;5070626;28;20064;-72
2022/01/18 12:55:52;;;;;;;9.38;2.90;;;;;;;;;;5071763;28;20452;-72
2022/01/18 12:58:26;;;;;;;9.35;3.42;;;;;;;;;;5071774;28;20047;-73
2022/01/18 13:01:02;;;;;;;8.15;3.20;;;;;;;;;;5071401;28;20420;-70
2022/01/18 13:03:30;;;;;;;7.80;3.03;;;;;;;;;;5071912;28;20107;-66
2022/01/18 13:05:58;;;;;;;7.72;3.03;;;;;;;;;;5071634;28;20032;-67
2022/01/18 13:08:48;;;;;;;9.98;3.10;;;;;;;;;;5070291;28;20282;-71
2022/01/18 13:11:19;;;;;;;7.93;3.20;;;;;;;;;;5071396;28;20028;-70
2022/01/18 13:13:53;;;;;;;10.38;3.03;;;;;;;;;;5071031;28;20452;-66
2022/01/18 13:26:47;;;;;;;12.23;2.80;;;;;;;;;;5073470;28;20110;-69
2022/01/18 13:29:14;;;;;;;6.93;2.80;;;;;;;;;;5076833;28;20021;-72
2022/01/18 13:31:42;;;;;;;8.40;2.90;;;;;;;;;;5072645;28;20222;-69
2022/01/18 13:34:12;;;;;;;9.07;2.85;;;;;;;;;;5076491;28;20307;-72
2022/01/18 13:36:55;;;;;;;8.40;2.60;;;;;;;;;;5072939;28;20048;-67
2022/01/18 13:39:28;;;;;;;9.02;2.90;;;;;;;;;;5075138;28;20036;-71
2022/01/18 13:41:56;;;;;;;6.28;2.47;;;;;;;;;;5070755;28;20413;-67
2022/01/18 13:44:22;;;;;;;8.13;3.15;;;;;;;;;;5072537;28;20024;-67
2022/01/18 13:46:47;;;;;;;9.80;2.90;;;;;;;;;;5072636;28;20411;-67
2022/01/18 13:49:13;;;;;;;8.85;2.75;;;;;;;;;;5072474;28;20349;-72
2022/01/18 13:51:57;;;;;;;6.90;2.53;;;;;;;;;;5073064;28;20032;-66
2022/01/18 13:54:25;;;;;;;8.65;2.92;;;;;;;;;;5072865;28;20413;-68
2022/01/18 13:56:50;;;;;;;7.03;2.70;;;;;;;;;;5069096;28;20377;-65
2022/01/18 13:59:16;;;;;;;6.82;2.70;;;;;;;;;;5068904;28;20035;-66
2022/01/18 14:01:41;;;;;;;8.48;2.97;;;;;;;;;;5068630;28;20020;-70
2022/01/18 14:04:19;;;;;;;7.70;3.30;;;;;;;;;;5068684;28;20024;-68
2022/01/18 14:06:45;;;;;;;8.55;3.28;;;;;;;;;;5068582;28;20033;-65
2022/01/18 14:09:13;;;;;;;8.55;3.10;;;;;;;;;;5068455;28;20024;-65
2022/01/18 14:11:47;;;;;;;9.70;3.20;;;;;;;;;;5068109;28;20028;-67
2022/01/18 14:14:26;;;;;;;10.02;3.10;;;;;;;;;;5070313;28;20158;-65
2022/01/18 14:17:01;;;;;;;7.90;2.78;;;;;;;;;;5070213;28;20032;-64
2022/01/18 14:19:38;;;;;;;11.35;4.50;;;;;;;;;;5069584;28;20036;-67
2022/01/18 14:22:13;;;;;;;7.97;3.95;;;;;;;;;;5069882;28;20187;-66
2022/01/18 14:24:42;;;;;;;29.92;12.57;;;;;;;;;;5069483;28;20036;-65
2022/01/18 14:27:13;;;;;;;16.08;6.97;;;;;;;;;;5070151;28;20526;-71
2022/01/18 14:29:41;;;;;;;9.00;3.33;;;;;;;;;;5070129;28;20036;-66
2022/01/18 14:32:09;;;;;;;20.08;7.78;;;;;;;;;;5070052;28;20036;-69
2022/01/18 14:34:39;;;;;;;123.28;46.47;;;;;;;;;;5069972;28;20033;-64
2022/01/18 14:37:05;;;;;;;132.55;46.45;;;;;;;;;;5069840;28;20096;-70
2022/01/18 14:39:31;;;;;;;35.00;12.80;;;;;;;;;;5074539;28;20032;-66
2022/01/18 14:42:04;;;;;;;23.67;7.00;;;;;;;;;;5070323;28;20040;-67
2022/01/18 14:47:26;;;;;;;10.82;4.47;;;;;;;;;;5072100;28;20028;-67
2022/01/18 14:49:57;;;;;;;17.48;8.00;;;;;;;;;;5071887;28;20031;-73
2022/01/18 14:52:23;;;;;;;;;;;;;;;;;;5070634;28;20138;-71
2022/01/18 14:54:49;;;;;;;28.88;12.38;;;;;;;;;;5071023;28;20003;-68
2022/01/18 14:57:15;;;;;;;14.75;5.38;;;;;;;;;;5074442;28;20081;-66
2022/01/18 14:59:40;;;;;;;11.55;5.60;;;;;;;;;;5072124;28;20036;-70
2022/01/18 15:02:06;;;;;;;9.23;3.90;;;;;;;;;;5069986;28;20029;-65
2022/01/18 15:04:32;;;;;;;11.82;3.33;;;;;;;;;;5068464;28;20021;-69
2022/01/18 15:06:57;;;;;;;10.43;3.75;;;;;;;;;;5069500;28;20052;-66
2022/01/18 15:09:28;;;;;;;8.45;3.85;;;;;;;;;;5069657;28;20029;-66
2022/01/18 15:11:57;;;;;;;16.95;6.30;;;;;;;;;;5069741;28;20051;-66
2022/01/18 15:14:24;;;;;;;11.30;4.60;;;;;;;;;;5069477;28;20033;-66
2022/01/18 15:16:49;;;;;;;9.38;3.17;;;;;;;;;;5069539;28;20044;-71
2022/01/18 15:19:15;;;;;;;14.30;3.65;;;;;;;;;;5069471;28;20032;-67
2022/01/18 15:21:40;;;;;;;12.55;4.40;;;;;;;;;;5069403;28;20433;-67
2022/01/18 15:24:06;;;;;;;10.18;3.20;;;;;;;;;;5069727;28;20024;-73
2022/01/18 15:26:31;;;;;;;16.08;4.55;;;;;;;;;;5069601;28;20012;-69
2022/01/18 15:28:57;;;;;;;11.63;3.78;;;;;;;;;;5069446;28;20027;-66
2022/01/18 15:31:22;;;;;;;12.77;4.43;;;;;;;;;;5069564;28;20078;-67
2022/01/18 15:33:47;;;;;;;16.23;5.57;;;;;;;;;;5069148;28;20024;-67
2022/01/18 15:36:13;;;;;;;11.13;4.10;;;;;;;;;;5072436;28;20534;-64
2022/01/18 15:38:38;;;;;;;10.43;3.40;;;;;;;;;;5073293;28;20101;-65
2022/01/18 15:41:04;;;;;;;8.00;3.13;;;;;;;;;;5073175;28;20573;-64
2022/01/18 15:43:30;;;;;;;8.20;3.00;;;;;;;;;;5073380;28;20035;-64
2022/01/18 15:45:55;;;;;;;9.85;3.10;;;;;;;;;;5073097;28;20020;-65
2022/01/18 15:48:21;;;;;;;13.50;5.70;;;;;;;;;;5073176;28;20100;-63
2022/01/18 15:50:47;;;;;;;9.88;4.10;;;;;;;;;;5073109;28;20013;-64
2022/01/18 15:53:13;;;;;;;14.98;4.25;;;;;;;;;;5078108;28;20556;-64
2022/01/18 15:55:38;;;;;;;11.00;4.00;;;;;;;;;;5073076;28;20116;-64
2022/01/18 15:58:04;;;;;;;10.25;3.60;;;;;;;;;;5072862;28;20025;-65
2022/01/18 16:00:30;;;;;;;10.48;3.85;;;;;;;;;;5073089;28;20024;-63
2022/01/18 16:02:55;;;;;;;10.68;4.90;;;;;;;;;;5072693;28;20027;-68
2022/01/18 16:05:21;;;;;;;10.10;4.63;;;;;;;;;;5072693;28;20027;-69
2022/01/18 16:07:46;;;;;;;15.73;7.00;;;;;;;;;;5072757;28;20024;-67
2022/01/18 16:10:12;;;;;;;22.52;9.23;;;;;;;;;;5072413;28;20357;-66
2022/01/18 16:12:37;;;;;;;15.40;6.80;;;;;;;;;;5071944;28;20020;-65
2022/01/18 16:15:03;;;;;;;11.88;5.70;;;;;;;;;;5072967;28;20126;-67
2022/01/18 16:17:29;;;;;;;11.95;5.00;;;;;;;;;;5073946;28;20041;-66
2022/01/18 16:19:55;;;;;;;14.18;4.55;;;;;;;;;;5072610;28;20174;-66
2022/01/18 16:22:20;;;;;;;11.35;4.57;;;;;;;;;;5074091;28;20031;-66
2022/01/18 16:24:47;;;;;;;11.07;4.95;;;;;;;;;;5072439;28;20050;-66